createdAt,value
2023-01-15T00:01:38.217Z,98891.80
2023-01-15T00:04:06.232Z,98892.38
2023-01-15T00:06:36.903Z,98890.73
2023-01-15T00:09:04.047Z,98888.86
2023-01-15T00:11:31.143Z,98885.83
2023-01-15T00:13:58.189Z,98886.92
2023-01-15T00:16:25.869Z,98886.85
2023-01-15T00:18:54.734Z,98893.89
2023-01-15T00:21:21.988Z,98899.52
2023-01-15T00:24:08.188Z,98895.23
2023-01-15T00:26:53.955Z,98898.06
2023-01-15T00:29:21.541Z,98900.25
2023-01-15T00:32:07.358Z,98898.09
2023-01-15T00:34:34.979Z,98895.90
2023-01-15T00:37:02.256Z,98893.33
2023-01-15T00:39:29.286Z,98893.27
2023-01-15T00:41:56.288Z,98889.29
2023-01-15T00:44:23.384Z,98886.10
2023-01-15T00:46:51.818Z,98877.88
2023-01-15T00:49:21.381Z,98874.28
2023-01-15T00:51:50.132Z,98871.70
2023-01-15T00:54:18.001Z,98866.79
2023-01-15T00:56:51.444Z,98866.92
2023-01-15T00:59:18.550Z,98872.97
2023-01-15T01:01:49.623Z,98867.33
2023-01-15T01:04:16.945Z,98862.31
2023-01-15T01:06:43.966Z,98862.04
2023-01-15T01:09:15.714Z,98862.30
2023-01-15T01:11:46.386Z,98862.42
2023-01-15T01:14:16.259Z,98860.48
2023-01-15T01:16:43.557Z,98863.33
2023-01-15T01:19:12.919Z,98858.89
2023-01-15T01:21:40.346Z,98853.42
2023-01-15T01:24:08.371Z,98852.08
2023-01-15T01:26:35.592Z,98851.08
2023-01-15T01:29:03.413Z,98849.55
2023-01-15T01:31:30.631Z,98840.90
2023-01-15T01:33:59.855Z,98838.64
2023-01-15T01:36:32.324Z,98833.69
2023-01-15T01:38:59.551Z,98825.42
2023-01-15T01:41:27.235Z,98824.75
2023-01-15T01:43:56.128Z,98822.02
2023-01-15T01:46:23.612Z,98820.33
2023-01-15T01:49:11.131Z,98816.95
2023-01-15T01:51:50.155Z,98813.95
2023-01-15T01:54:18.402Z,98818.72
2023-01-15T01:56:45.759Z,98818.83
2023-01-15T01:59:13.213Z,98827.52
2023-01-15T02:01:40.367Z,98829.33
2023-01-15T02:04:08.857Z,98824.30
2023-01-15T02:06:36.321Z,98824.86
2023-01-15T02:11:50.180Z,98831.80
2023-01-15T02:14:25.811Z,98830.05
2023-01-15T02:17:11.415Z,98827.29
2023-01-15T02:19:50.732Z,98829.84
2023-01-15T02:22:33.161Z,98825.90
2023-01-15T02:25:32.230Z,98824.05
2023-01-15T02:28:07.956Z,98822.98
2023-01-15T02:30:41.221Z,98826.36
2023-01-15T02:33:18.562Z,98828.63
2023-01-15T02:35:52.547Z,98825.42
2023-01-15T02:38:21.734Z,98823.70
2023-01-15T02:40:52.135Z,98824.70
2023-01-15T02:43:21.080Z,98821.77
2023-01-15T02:45:50.219Z,98824.33
2023-01-15T02:48:21.343Z,98825.27
2023-01-15T02:51:00.573Z,98819.91
2023-01-15T02:53:30.202Z,98815.33
2023-01-15T02:56:03.456Z,98810.73
2023-01-15T02:58:35.846Z,98809.52
2023-01-15T03:01:07.519Z,98808.35
2023-01-15T03:03:36.676Z,98811.89
2023-01-15T03:06:19.086Z,98815.15
2023-01-15T03:08:46.155Z,98813.16
2023-01-15T06:02:50.772Z,98745.50
2023-01-15T08:30:16.230Z,98694.24
2023-01-15T09:54:00.668Z,98595.04
2023-01-15T10:17:47.665Z,98587.77
2023-01-15T10:20:42.534Z,98585.33
2023-01-15T10:23:15.726Z,98592.35
2023-01-15T10:25:55.215Z,98584.40
2023-01-15T10:28:24.358Z,98574.63
2023-01-15T10:30:55.964Z,98571.39
2023-01-15T10:33:49.373Z,98570.88
2023-01-15T10:36:20.690Z,98568.04
2023-01-15T10:39:00.572Z,98563.27
2023-01-15T10:41:33.515Z,98560.62
2023-01-15T10:44:14.440Z,98560.89
2023-01-15T10:46:41.532Z,98549.67
2023-01-15T10:49:16.106Z,98542.56
2023-01-15T10:51:55.335Z,98545.08
2023-01-15T10:54:41.227Z,98541.90
2023-01-15T10:57:21.284Z,98541.92
2023-01-15T10:59:51.246Z,98539.39
2023-01-15T11:02:32.212Z,98543.27
2023-01-15T11:04:59.427Z,98539.65
2023-01-15T11:08:13.848Z,98545.71
2023-01-15T11:10:34.575Z,98545.90
2023-01-15T11:13:38.900Z,98543.13
2023-01-15T11:16:24.934Z,98545.35
2023-01-15T11:19:10.299Z,98532.21
2023-01-15T11:21:40.752Z,98521.13
2023-01-15T11:24:14.697Z,98512.58
2023-01-15T11:26:41.694Z,98514.08
2023-01-15T11:29:16.187Z,98518.41
2023-01-15T11:34:27.467Z,98507.39
2023-01-15T11:37:04.815Z,98490.38
2023-01-15T11:39:32.165Z,98480.99
2023-01-15T11:42:22.075Z,98481.61
2023-01-15T11:45:12.161Z,98480.56
2023-01-15T11:47:57.553Z,98486.67
2023-01-15T11:50:43.758Z,98482.73
2023-01-15T11:53:18.656Z,98473.55
2023-01-15T11:56:02.572Z,98462.98
2023-01-15T11:58:32.310Z,98462.39
2023-01-15T12:01:02.412Z,98464.67
2023-01-15T12:03:30.228Z,98466.52
2023-01-15T12:06:06.777Z,98460.39
2023-01-15T12:08:48.712Z,98452.77
2023-01-15T12:20:40.252Z,98452.85
2023-01-15T12:23:57.328Z,98458.36
2023-01-15T13:16:03.532Z,98372.17
2023-01-15T18:11:52.640Z,98273.13
2023-01-15T18:27:50.613Z,98245.16
2023-01-15T19:18:42.405Z,98217.34
2023-01-15T19:21:27.926Z,98218.11
2023-01-15T19:26:40.318Z,98221.52
2023-01-15T19:29:07.306Z,98222.10
2023-01-15T19:31:38.755Z,98229.37
2023-01-15T19:34:32.198Z,98217.64
2023-01-15T19:36:56.367Z,98216.71
2023-01-15T19:39:23.378Z,98212.94
2023-01-15T19:42:09.686Z,98202.73
2023-01-15T19:45:14.575Z,98207.52
2023-01-15T19:48:18.552Z,98205.14
2023-01-15T19:50:46.195Z,98213.54
2023-01-15T19:53:13.595Z,98206.46
2023-01-15T19:55:43.628Z,98215.33
2023-01-15T20:00:56.485Z,98221.11
2023-01-15T20:03:23.471Z,98210.34
2023-01-15T20:05:50.695Z,98195.83
2023-01-15T20:08:18.607Z,98210.56
2023-01-15T20:10:48.886Z,98207.00
2023-01-15T20:13:39.419Z,98204.11
2023-01-15T20:16:17.949Z,98213.61
2023-01-15T20:18:45.946Z,98220.04
2023-01-15T20:21:14.801Z,98216.01
2023-01-15T20:23:47.870Z,98214.06
2023-01-15T20:26:14.924Z,98202.96
2023-01-15T20:28:42.850Z,98202.25
2023-01-15T20:31:17.633Z,98208.42
2023-01-15T20:34:03.187Z,98214.02
2023-01-15T20:36:34.567Z,98221.07
2023-01-15T20:39:02.321Z,98216.40
2023-01-15T20:41:48.091Z,98208.02
2023-01-15T20:44:33.709Z,98212.21
2023-01-15T20:47:00.799Z,98206.10
2023-01-15T20:49:29.136Z,98207.64
2023-01-15T20:51:56.849Z,98199.65
2023-01-15T20:54:24.809Z,98205.94
2023-01-15T20:57:10.803Z,98225.48
2023-01-15T21:02:22.581Z,98208.55
2023-01-15T21:04:49.654Z,98207.55
2023-01-15T21:07:16.912Z,98193.67
2023-01-15T21:09:44.049Z,98195.07
2023-01-15T21:12:10.994Z,98195.03
2023-01-15T21:14:37.987Z,98196.85
2023-01-15T21:17:05.204Z,98184.64
2023-01-15T21:19:32.187Z,98184.36
2023-01-15T21:21:59.093Z,98186.64
2023-01-15T21:24:26.537Z,98183.86
2023-01-15T21:26:53.520Z,98188.34
2023-01-15T21:29:20.660Z,98199.89
2023-01-15T21:31:47.756Z,98197.08
2023-01-15T21:34:14.917Z,98202.70
2023-01-15T21:36:42.095Z,98196.24
2023-01-15T21:39:13.078Z,98192.67
2023-01-15T21:42:17.427Z,98184.64
2023-01-15T21:44:44.869Z,98175.93
2023-01-15T21:47:16.656Z,98182.70
2023-01-15T21:49:43.912Z,98180.02
2023-01-15T21:52:16.247Z,98177.67
2023-01-15T21:54:43.629Z,98178.66
2023-01-15T21:57:11.092Z,98179.98
2023-01-15T21:59:38.366Z,98176.36
2023-01-15T22:02:05.433Z,98176.27
2023-01-15T22:04:34.908Z,98169.20
2023-01-15T22:07:02.122Z,98162.11
2023-01-15T22:09:29.196Z,98157.25
2023-01-15T22:11:56.253Z,98156.27
2023-01-15T22:14:41.822Z,98157.86
2023-01-15T22:17:09.944Z,98159.55
2023-01-15T22:19:39.805Z,98154.80
2023-01-15T22:22:11.132Z,98151.20
2023-01-15T22:24:39.366Z,98152.64
2023-01-15T22:27:07.099Z,98146.25
2023-01-15T22:29:41.164Z,98142.14
2023-01-15T22:32:09.335Z,98148.18
2023-01-15T22:34:36.537Z,98140.17
2023-01-15T22:39:49.559Z,98123.02
2023-01-15T22:42:27.739Z,98118.49
2023-01-15T22:44:56.263Z,98114.88
2023-01-15T22:47:23.395Z,98107.03
2023-01-15T22:49:50.454Z,98111.25
2023-01-15T22:52:17.704Z,98105.57
2023-01-15T22:54:45.384Z,98104.81
2023-01-15T22:57:13.177Z,98108.10
2023-01-15T22:59:40.497Z,98104.76
2023-01-15T23:02:08.302Z,98109.58
2023-01-15T23:04:35.577Z,98112.85
2023-01-15T23:07:22.932Z,98109.21
2023-01-15T23:09:49.887Z,98112.10
2023-01-15T23:12:17.009Z,98107.32
2023-01-15T23:14:46.823Z,98105.88
2023-01-15T23:17:13.972Z,98104.79
2023-01-15T23:19:41.048Z,98100.65
2023-01-15T23:22:07.967Z,98099.75
2023-01-15T23:24:34.947Z,98105.49
2023-01-15T23:27:01.959Z,98098.70
2023-01-15T23:29:28.907Z,98099.02
2023-01-15T23:31:58.774Z,98094.82
2023-01-15T23:34:26.478Z,98094.63
2023-01-15T23:36:53.639Z,98093.08
2023-01-15T23:39:20.882Z,98092.91
2023-01-15T23:42:06.680Z,98088.45
2023-01-15T23:45:10.884Z,98078.13
2023-01-15T23:47:38.146Z,98072.61
2023-01-15T23:50:05.689Z,98073.23
2023-01-15T23:52:32.845Z,98074.20
2023-01-15T23:57:47.314Z,98063.94
